ANACAPA ISLAND CA US current weather conditions

sailwx.info

Wind from 296 at 8 knots gusting 11

Air temperature 23.9° C
Dewpoint 20.2° C

Last reported at 2014-Sep-01 19:23 UTC.
Time now 2014-Sep-01 21:04 UTC

Location: N 34°01' W 119°22'.
View on Google Maps.

See reports from other nearby stations

  
Tides and Currents Weather Stations Pressure Air Temp Water Temp Dewpoint Dewpoint Depression Visibility Wind Speed Wind Dir Waves Ship Positions
date/time (UTC)wind fromknots sea level pressurealtimeterstation pressurevisibilityair tempwater tempwave heightnotes
2014-Sep-01 19:23 296 8 gusting 11 23.9
2014-Sep-01 18:23 298 8 gusting 12 24.4
2014-Sep-01 17:23 303 11 gusting 13 22.8
2014-Sep-01 16:23 305 10 gusting 12 22.2
2014-Sep-01 15:23 309 8 gusting 10 23.3
2014-Sep-01 14:23 312 9 gusting 10 22.8
2014-Sep-01 13:23 310 6 gusting 6 23.9
2014-Sep-01 12:23 353 2 gusting 8 22.8
2014-Sep-01 11:23 080 2 gusting 7 22.8
2014-Sep-01 10:23 311 4 gusting 9 23.9
2014-Sep-01 09:23 307 6 gusting 7 25.6
2014-Sep-01 08:23 308 5 gusting 10 22.2
2014-Sep-01 07:23 302 4 gusting 10 22.8
2014-Sep-01 06:23 329 10 gusting 16 21.1
2014-Sep-01 05:23 318 13 gusting 16 21.7
2014-Sep-01 04:23 101 2 gusting 14 23.9
2014-Sep-01 03:23 279 9 gusting 22 23.3
2014-Sep-01 02:23 288 17 gusting 31 23.9
2014-Sep-01 01:23 298 21 gusting 33 23.3
2014-Sep-01 00:23 273 15 gusting 26 23.9
2014-Aug-31 23:23 006 6 gusting 10 26.1
2014-Aug-31 22:23 044 0 gusting 9 30.0
2014-Aug-31 21:23 295 1 gusting 5 28.9
2014-Aug-31 20:23 337 1 gusting 6 30.6
2014-Aug-31 19:23 213 1 gusting 6 30.6
2014-Aug-31 18:23 047 1 gusting 11 28.3
2014-Aug-31 17:23 080 1 gusting 11 26.1
2014-Aug-31 16:23 160 8 gusting 16 25.0
2014-Aug-31 15:23 147 8 gusting 13 23.3
2014-Aug-31 14:23 072 5 gusting 6 22.8
2014-Aug-31 13:23 074 2 gusting 7 24.4
2014-Aug-31 12:23 308 4 gusting 6 24.4
2014-Aug-31 11:23 302 4 gusting 8 23.3
2014-Aug-31 10:23 215 4 gusting 7 24.4
2014-Aug-31 09:23 299 6 gusting 28 23.3
2014-Aug-31 08:23 306 23 gusting 30 23.3
2014-Aug-31 07:23 301 20 gusting 27 25.0
2014-Aug-31 06:23 301 23 gusting 33 25.0
2014-Aug-31 05:23 310 15 gusting 20 25.0
2014-Aug-31 04:23 327 18 gusting 28 24.4
2014-Aug-31 03:23 326 26 gusting 29 26.1
2014-Aug-31 02:23 337 16 gusting 19 25.0
2014-Aug-31 01:23 338 6 gusting 8 23.9
2014-Aug-31 00:23 311 6 gusting 9 24.4
2014-Aug-30 23:23 298 3 gusting 8 25.6
2014-Aug-30 22:23 294 6 gusting 10 25.6
2014-Aug-30 21:23 349 2 gusting 10 28.3